Time;durP1;ratioP1;P1;durP2;ratioP2;P2;SDS_P1;SDS_P2;PMS_P1;PMS_P2;Temp;Humidity;BMP_temperature;BMP_pressure;BME280_temperature;BME280_humidity;BME280_pressure;Samples;Min_cycle;Max_cycle;Signal;HPM_P1;HPM_P2
2022/05/18 00:02:23;;;;;;;1.40;1.30;;;20.90;47.60;;;;;;5037915;28;21216;-59
2022/05/18 00:04:48;;;;;;;1.40;1.30;;;20.90;47.70;;;;;;5039649;28;20696;-58
2022/05/18 00:07:14;;;;;;;1.40;1.30;;;20.90;47.60;;;;;;5038936;28;20453;-58
2022/05/18 00:09:40;;;;;;;1.30;1.20;;;20.90;47.60;;;;;;5041287;28;20238;-59
2022/05/18 00:12:06;;;;;;;1.47;1.37;;;20.90;47.60;;;;;;5020127;28;20227;-58
2022/05/18 00:14:32;;;;;;;1.37;1.20;;;20.90;47.70;;;;;;5038945;28;20226;-59
2022/05/18 00:17:00;;;;;;;1.60;1.50;;;20.90;47.70;;;;;;5034531;28;20802;-58
2022/05/18 00:19:26;;;;;;;1.43;1.33;;;20.90;47.70;;;;;;5037887;28;20226;-58
2022/05/18 00:21:51;;;;;;;1.43;1.33;;;20.90;47.60;;;;;;5037429;28;20459;-58
2022/05/18 00:24:17;;;;;;;1.37;1.27;;;20.90;47.70;;;;;;5037185;28;20456;-59
2022/05/18 00:26:42;;;;;;;1.50;1.40;;;20.90;47.70;;;;;;5041469;28;20223;-58
2022/05/18 00:29:09;;;;;;;1.40;1.30;;;20.90;47.60;;;;;;5037987;28;20231;-59
2022/05/18 00:31:35;;;;;;;1.30;1.20;;;20.90;47.60;;;;;;5038973;28;20218;-59
2022/05/18 00:34:00;;;;;;;1.40;1.30;;;20.90;47.60;;;;;;5040207;28;20502;-58
2022/05/18 00:36:26;;;;;;;1.30;1.20;;;20.90;47.60;;;;;;5034420;28;20630;-58
2022/05/18 00:38:51;;;;;;;1.40;1.30;;;20.90;47.70;;;;;;5034568;28;20688;-59
2022/05/18 00:41:19;;;;;;;1.27;1.20;;;20.90;47.70;;;;;;5032096;28;20298;-58
2022/05/18 00:43:48;;;;;;;1.60;1.50;;;20.90;47.70;;;;;;5034366;28;20715;-58
2022/05/18 00:46:15;;;;;;;2.20;1.40;;;20.90;47.70;;;;;;5031935;28;20493;-59
2022/05/18 00:48:41;;;;;;;1.20;1.10;;;20.90;47.70;;;;;;5040112;28;20912;-58
2022/05/18 00:51:14;;;;;;;1.40;1.30;;;20.90;47.70;;;;;;5036145;28;20439;-60
2022/05/18 00:53:54;;;;;;;1.40;1.30;;;20.90;47.70;;;;;;5031036;28;20505;-58
2022/05/18 00:56:25;;;;;;;1.50;1.40;;;20.90;48.50;;;;;;5036624;28;20425;-58
2022/05/18 00:58:59;;;;;;;1.70;1.60;;;20.90;47.70;;;;;;5031127;28;20487;-59
2022/05/18 01:01:25;;;;;;;1.50;1.40;;;20.90;47.70;;;;;;5034638;28;20834;-58
2022/05/18 01:03:53;;;;;;;1.50;1.40;;;20.90;47.70;;;;;;5035800;28;20435;-58
2022/05/18 01:06:35;;;;;;;1.40;1.30;;;20.90;47.70;;;;;;5033332;28;20219;-58
2022/05/18 01:09:05;;;;;;;1.40;1.30;;;20.90;47.70;;;;;;5038291;28;20444;-58
2022/05/18 01:11:36;;;;;;;1.50;1.40;;;20.90;47.70;;;;;;5037108;28;20437;-59
2022/05/18 01:14:03;;;;;;;1.67;1.57;;;20.90;47.70;;;;;;5037543;28;21091;-58
2022/05/18 01:16:29;;;;;;;1.40;1.30;;;20.90;47.70;;;;;;5038510;28;20442;-58
2022/05/18 01:18:56;;;;;;;1.40;1.30;;;20.90;47.70;;;;;;5035056;28;20426;-59
2022/05/18 01:21:27;;;;;;;1.27;1.17;;;20.90;47.70;;;;;;5030071;28;21135;-58
2022/05/18 01:24:21;;;;;;;1.43;1.33;;;20.90;47.70;;;;;;5035929;28;20456;-58
2022/05/18 01:26:47;;;;;;;1.50;1.40;;;20.90;47.70;;;;;;5033385;28;20453;-59
2022/05/18 01:29:16;;;;;;;1.50;1.40;;;20.90;47.70;;;;;;5029654;28;20551;-58
2022/05/18 01:31:51;;;;;;;1.60;1.50;;;20.90;47.70;;;;;;5036738;28;20834;-60
2022/05/18 01:34:20;;;;;;;1.27;1.17;;;20.90;47.70;;;;;;5032266;28;21023;-59
2022/05/18 01:36:47;;;;;;;1.97;1.50;;;20.90;47.70;;;;;;5037622;28;20452;-59
2022/05/18 01:39:22;;;;;;;1.47;1.37;;;20.90;47.70;;;;;;5035044;28;20468;-59
2022/05/18 01:42:17;;;;;;;1.40;1.30;;;20.90;47.70;;;;;;5031941;28;20422;-59
2022/05/18 01:44:43;;;;;;;1.50;1.40;;;20.90;47.70;;;;;;5025220;28;20513;-58
2022/05/18 01:47:08;;;;;;;1.37;1.27;;;20.90;47.80;;;;;;5036575;28;20527;-58
2022/05/18 01:49:37;;;;;;;1.43;1.33;;;20.90;47.70;;;;;;5037381;28;20218;-58
2022/05/18 01:52:03;;;;;;;1.40;1.30;;;20.90;47.70;;;;;;5014056;28;20218;-59
2022/05/18 01:54:29;;;;;;;1.83;1.40;;;20.90;47.70;;;;;;5035243;28;20436;-58
2022/05/18 01:56:57;;;;;;;1.40;1.30;;;20.90;47.70;;;;;;5033141;28;20458;-58
2022/05/18 01:59:22;;;;;;;1.50;1.40;;;20.90;47.70;;;;;;5029993;28;20250;-58
2022/05/18 02:01:48;;;;;;;1.50;1.40;;;20.90;47.70;;;;;;5037304;28;20905;-58
2022/05/18 02:04:14;;;;;;;1.43;1.33;;;20.90;47.70;;;;;;5030001;28;20320;-58
2022/05/18 02:06:40;;;;;;;1.50;1.40;;;20.90;47.70;;;;;;5034467;28;20616;-59
2022/05/18 02:09:06;;;;;;;1.60;1.50;;;20.90;47.80;;;;;;5028620;28;20322;-58
2022/05/18 02:11:33;;;;;;;1.80;1.70;;;20.90;47.70;;;;;;5033735;28;20535;-58
2022/05/18 02:13:59;;;;;;;1.97;1.30;;;20.90;47.70;;;;;;5029164;28;21488;-58
2022/05/18 02:16:25;;;;;;;1.63;1.53;;;20.90;47.80;;;;;;5036095;28;20440;-58
2022/05/18 02:18:51;;;;;;;1.63;1.53;;;20.90;47.80;;;;;;5035694;28;20524;-58
2022/05/18 02:21:16;;;;;;;1.53;1.43;;;20.90;47.80;;;;;;5035617;28;20249;-58
2022/05/18 02:23:42;;;;;;;1.50;1.40;;;20.90;47.80;;;;;;5034328;28;20261;-59
2022/05/18 02:26:10;;;;;;;1.60;1.50;;;20.90;47.80;;;;;;5031545;28;20750;-58
2022/05/18 02:28:36;;;;;;;1.40;1.30;;;20.90;47.80;;;;;;5031657;28;20222;-59
2022/05/18 02:31:02;;;;;;;1.60;1.50;;;20.90;47.70;;;;;;5030869;28;20447;-58
2022/05/18 02:33:28;;;;;;;1.67;1.57;;;20.90;47.80;;;;;;5034607;28;20258;-59
2022/05/18 02:35:53;;;;;;;1.77;1.67;;;20.90;47.80;;;;;;5028463;28;20536;-58
2022/05/18 02:38:19;;;;;;;1.80;1.70;;;20.90;47.80;;;;;;5031828;28;20237;-58
2022/05/18 02:40:44;;;;;;;1.70;1.60;;;20.90;47.80;;;;;;5033516;28;20309;-58
2022/05/18 02:43:10;;;;;;;2.10;2.00;;;20.90;47.80;;;;;;5028383;28;20239;-59
2022/05/18 02:45:36;;;;;;;1.50;1.40;;;20.90;47.80;;;;;;5036234;28;20275;-59
2022/05/18 02:48:01;;;;;;;1.70;1.60;;;20.90;47.80;;;;;;5033170;28;20215;-58
2022/05/18 02:50:27;;;;;;;1.50;1.40;;;20.90;48.00;;;;;;5033590;28;20233;-58
2022/05/18 02:52:53;;;;;;;1.33;1.23;;;20.90;47.80;;;;;;5035031;28;20554;-58
2022/05/18 02:58:03;;;;;;;1.63;1.53;;;20.90;47.80;;;;;;5039911;28;20221;-59
2022/05/18 03:00:28;;;;;;;1.80;1.70;;;20.90;47.80;;;;;;5039480;28;20448;-58
2022/05/18 03:02:54;;;;;;;1.60;1.50;;;20.90;47.80;;;;;;5036659;28;20515;-58
2022/05/18 03:05:20;;;;;;;1.83;1.73;;;20.90;48.60;;;;;;5037803;28;20257;-58
2022/05/18 03:07:46;;;;;;;1.70;1.60;;;20.90;47.80;;;;;;5037389;28;20467;-59
2022/05/18 03:10:15;;;;;;;1.60;1.50;;;20.90;47.90;;;;;;5038133;28;20238;-58
2022/05/18 03:12:42;;;;;;;1.37;1.27;;;20.90;47.90;;;;;;5036695;28;20230;-58
2022/05/18 03:15:08;;;;;;;1.80;1.70;;;20.90;47.80;;;;;;5037030;28;20567;-58
2022/05/18 03:17:34;;;;;;;1.80;1.70;;;20.90;47.80;;;;;;5037972;28;20429;-58
2022/05/18 03:19:59;;;;;;;1.50;1.40;;;20.90;47.80;;;;;;5039572;28;20445;-58
2022/05/18 03:25:09;;;;;;;1.57;1.47;;;20.90;47.80;;;;;;5031426;28;20250;-58
2022/05/18 03:27:43;;;;;;;1.70;1.60;;;20.90;47.80;;;;;;5038136;28;20426;-59
2022/05/18 03:30:10;;;;;;;1.47;1.37;;;20.90;47.80;;;;;;5035060;28;20235;-59
2022/05/18 03:32:36;;;;;;;1.80;1.70;;;20.90;47.80;;;;;;5040000;28;20447;-58
2022/05/18 03:35:01;;;;;;;1.90;1.80;;;20.90;47.80;;;;;;5040510;28;20441;-58
2022/05/18 03:37:27;;;;;;;1.63;1.53;;;20.90;47.80;;;;;;5039254;28;20297;-58
2022/05/18 03:39:52;;;;;;;1.70;1.60;;;20.90;47.80;;;;;;5037785;28;20229;-58
2022/05/18 03:42:18;;;;;;;1.90;1.80;;;20.90;47.80;;;;;;5039033;28;20231;-59
2022/05/18 03:44:43;;;;;;;1.70;1.60;;;20.90;48.00;;;;;;5037500;28;20288;-58
2022/05/18 03:47:09;;;;;;;3.67;1.70;;;20.90;47.90;;;;;;5041630;28;20292;-59
2022/05/18 03:49:35;;;;;;;2.03;1.93;;;20.90;47.80;;;;;;5040887;28;20234;-59
2022/05/18 03:52:00;;;;;;;1.70;1.60;;;20.90;47.90;;;;;;5034820;28;20668;-58
2022/05/18 03:54:26;;;;;;;1.50;1.40;;;20.90;47.80;;;;;;5034251;28;20246;-58
2022/05/18 03:56:52;;;;;;;1.70;1.60;;;20.90;47.80;;;;;;5038120;28;20218;-59
2022/05/18 03:59:18;;;;;;;1.60;1.50;;;20.90;48.60;;;;;;5041305;28;20230;-58
2022/05/18 04:01:43;;;;;;;1.80;1.70;;;20.90;48.00;;;;;;5031135;28;20325;-58
2022/05/18 04:04:09;;;;;;;2.07;1.97;;;20.90;47.80;;;;;;5035470;28;20288;-58
2022/05/18 04:06:35;;;;;;;1.73;1.63;;;20.90;47.90;;;;;;5035667;28;20625;-58
2022/05/18 04:09:00;;;;;;;1.60;1.50;;;20.90;47.90;;;;;;5043556;28;20234;-58
2022/05/18 04:11:26;;;;;;;1.70;1.60;;;20.90;47.80;;;;;;5038767;28;20245;-58
2022/05/18 04:13:52;;;;;;;1.70;1.60;;;20.90;47.90;;;;;;5044855;28;20226;-58
2022/05/18 04:16:18;;;;;;;1.60;1.50;;;20.90;47.80;;;;;;5034833;28;20231;-58
2022/05/18 04:18:43;;;;;;;1.80;1.70;;;20.90;47.90;;;;;;5038354;28;20218;-58
2022/05/18 04:21:09;;;;;;;1.70;1.60;;;20.90;47.90;;;;;;5042836;28;20220;-58
2022/05/18 04:23:41;;;;;;;1.70;1.60;;;20.90;47.90;;;;;;5042470;28;20293;-59
2022/05/18 04:26:08;;;;;;;1.77;1.67;;;20.90;47.90;;;;;;5038293;28;20233;-58
2022/05/18 04:28:34;;;;;;;1.70;1.60;;;20.90;47.90;;;;;;5036400;28;20411;-58
2022/05/18 04:31:01;;;;;;;1.70;1.60;;;20.90;47.80;;;;;;5035168;28;20456;-58
2022/05/18 04:33:27;;;;;;;2.00;1.90;;;20.90;47.90;;;;;;5040850;28;20443;-58
2022/05/18 04:35:53;;;;;;;1.80;1.70;;;20.90;48.00;;;;;;5038127;28;20437;-59
2022/05/18 04:38:20;;;;;;;1.60;1.50;;;20.90;47.90;;;;;;5039895;28;20439;-59
2022/05/18 04:40:47;;;;;;;1.80;1.70;;;20.90;47.90;;;;;;5037223;28;20422;-62
2022/05/18 04:43:14;;;;;;;1.90;1.80;;;20.90;47.90;;;;;;5036866;28;20583;-62
2022/05/18 04:45:46;;;;;;;1.80;1.70;;;20.90;47.80;;;;;;5030863;28;20492;-63
2022/05/18 04:48:16;;;;;;;1.80;1.70;;;20.90;47.80;;;;;;5033757;28;20425;-61
2022/05/18 04:50:42;;;;;;;2.00;1.90;;;20.90;47.80;;;;;;5037650;28;20516;-61
2022/05/18 04:53:08;;;;;;;2.10;2.00;;;21.00;47.80;;;;;;5037872;28;20452;-59
2022/05/18 04:55:34;;;;;;;1.90;1.80;;;21.00;47.80;;;;;;5036248;28;20423;-60
2022/05/18 04:58:01;;;;;;;1.70;1.60;;;21.00;47.80;;;;;;5036647;28;20262;-59
2022/05/18 05:00:27;;;;;;;1.97;1.87;;;21.00;47.70;;;;;;5031009;28;20233;-60
2022/05/18 05:02:56;;;;;;;2.23;2.13;;;21.00;47.70;;;;;;5036572;28;20443;-59
2022/05/18 05:05:22;;;;;;;1.70;1.60;;;21.00;47.80;;;;;;5035572;28;21335;-59
2022/05/18 05:07:48;;;;;;;1.80;1.70;;;21.00;47.70;;;;;;5035080;28;20439;-59
2022/05/18 05:10:14;;;;;;;1.80;1.70;;;21.00;47.80;;;;;;5036720;28;20439;-59
2022/05/18 05:12:39;;;;;;;1.80;1.70;;;21.00;47.80;;;;;;5034807;28;20264;-59
2022/05/18 05:15:05;;;;;;;1.90;1.80;;;21.00;48.50;;;;;;5016583;28;20239;-59
2022/05/18 05:17:31;;;;;;;1.90;1.80;;;21.00;47.80;;;;;;5038272;28;20219;-58
2022/05/18 05:19:59;;;;;;;1.97;1.87;;;21.00;47.80;;;;;;5032942;28;20802;-59
2022/05/18 05:22:24;;;;;;;1.83;1.73;;;21.00;47.80;;;;;;5031948;28;20223;-59
2022/05/18 05:24:50;;;;;;;1.93;1.83;;;21.00;48.60;;;;;;5036956;28;20977;-58
2022/05/18 05:27:16;;;;;;;2.07;1.97;;;21.00;47.80;;;;;;5033792;28;20518;-59
2022/05/18 05:29:41;;;;;;;2.30;2.10;;;21.00;47.80;;;;;;5032137;28;20227;-60
2022/05/18 05:32:08;;;;;;;1.80;1.70;;;21.00;47.80;;;;;;5035514;28;20281;-59
2022/05/18 05:34:34;;;;;;;1.90;1.80;;;21.00;47.80;;;;;;5031925;28;20282;-59
2022/05/18 05:37:00;;;;;;;2.03;1.93;;;21.00;47.80;;;;;;5038064;28;20439;-59
2022/05/18 05:39:25;;;;;;;2.00;1.90;;;21.00;47.90;;;;;;5035808;28;20457;-59
2022/05/18 05:41:51;;;;;;;1.90;1.80;;;21.00;47.90;;;;;;5035619;28;20223;-58
2022/05/18 05:44:16;;;;;;;2.10;2.00;;;21.00;47.90;;;;;;5032185;28;20313;-58
2022/05/18 05:46:42;;;;;;;2.00;1.90;;;21.00;47.90;;;;;;5021959;28;20216;-59
2022/05/18 05:49:09;;;;;;;1.90;1.80;;;21.00;48.60;;;;;;5033530;28;20625;-58
2022/05/18 05:51:35;;;;;;;2.63;2.43;;;21.00;47.90;;;;;;5033559;28;20225;-58
2022/05/18 05:54:00;;;;;;;2.20;2.10;;;21.00;47.90;;;;;;5035817;28;20522;-58
2022/05/18 05:56:26;;;;;;;2.63;2.43;;;21.00;47.90;;;;;;5034660;28;20302;-58
2022/05/18 05:58:52;;;;;;;2.30;2.20;;;21.00;47.80;;;;;;5031443;28;20696;-58
2022/05/18 06:01:18;;;;;;;3.70;3.47;;;21.00;47.90;;;;;;5038440;28;20713;-58
2022/05/18 06:03:44;;;;;;;2.90;2.70;;;21.00;48.50;;;;;;5024694;28;20242;-58
2022/05/18 06:06:10;;;;;;;2.43;2.23;;;21.00;47.60;;;;;;5035345;28;20543;-58
2022/05/18 06:08:37;;;;;;;2.90;2.23;;;21.00;47.60;;;;;;5035852;28;20537;-61
2022/05/18 06:11:03;;;;;;;2.73;2.53;;;21.00;47.60;;;;;;5038630;28;20487;-62
2022/05/18 06:13:29;;;;;;;2.40;2.30;;;21.00;47.60;;;;;;5033019;28;20418;-61
2022/05/18 06:15:55;;;;;;;2.60;2.50;;;21.00;47.60;;;;;;5034898;28;20502;-60
2022/05/18 06:18:21;;;;;;;2.40;2.27;;;21.00;47.60;;;;;;5030982;28;20233;-60
2022/05/18 06:20:47;;;;;;;2.73;2.63;;;21.00;47.60;;;;;;5035694;28;20457;-60
2022/05/18 06:23:13;;;;;;;2.30;2.20;;;21.00;47.60;;;;;;5034258;28;20237;-59
2022/05/18 06:25:39;;;;;;;2.57;2.47;;;21.00;47.60;;;;;;5035772;28;20422;-59
2022/05/18 06:28:07;;;;;;;2.67;2.57;;;21.00;47.70;;;;;;5030222;28;20962;-59
2022/05/18 06:30:33;;;;;;;2.40;2.30;;;21.00;47.70;;;;;;5040450;28;20222;-59
2022/05/18 06:32:59;;;;;;;2.20;2.10;;;21.00;47.70;;;;;;5037641;28;20510;-59
2022/05/18 06:35:24;;;;;;;2.20;2.00;;;21.00;47.70;;;;;;5041423;28;20554;-59
2022/05/18 06:37:50;;;;;;;2.50;2.30;;;21.00;47.70;;;;;;5038630;28;20222;-59
2022/05/18 06:40:17;;;;;;;2.67;2.47;;;21.00;47.70;;;;;;5020594;28;20554;-59
2022/05/18 06:42:43;;;;;;;2.33;2.23;;;21.00;47.70;;;;;;5040981;28;20793;-59
2022/05/18 06:45:11;;;;;;;2.70;2.53;;;21.00;47.80;;;;;;5044972;28;20446;-59
2022/05/18 06:47:37;;;;;;;2.53;2.33;;;21.00;47.80;;;;;;5039834;28;20407;-60
2022/05/18 06:50:05;;;;;;;2.30;2.20;;;21.00;47.80;;;;;;5035328;28;20427;-60
2022/05/18 06:52:31;;;;;;;2.43;2.23;;;21.00;47.80;;;;;;5038951;28;20431;-59
2022/05/18 06:54:56;;;;;;;2.17;2.07;;;21.00;47.80;;;;;;5041656;28;20487;-59
2022/05/18 06:57:22;;;;;;;2.60;2.40;;;21.00;47.80;;;;;;5039785;28;20961;-59
2022/05/18 06:59:48;;;;;;;2.27;2.17;;;21.00;47.80;;;;;;5041623;28;20580;-59
2022/05/18 07:02:13;;;;;;;2.60;2.40;;;21.00;47.80;;;;;;5034878;28;20298;-59
2022/05/18 07:04:39;;;;;;;2.50;2.40;;;21.00;47.80;;;;;;5035810;28;20234;-59
2022/05/18 07:07:04;;;;;;;2.43;2.23;;;21.00;47.80;;;;;;5042967;28;20830;-59
2022/05/18 07:09:30;;;;;;;2.90;2.70;;;21.00;47.80;;;;;;5045283;28;20227;-57
2022/05/18 07:11:56;;;;;;;2.10;2.00;;;21.00;47.80;;;;;;5039753;28;20672;-59
2022/05/18 07:14:27;;;;;;;2.60;2.40;;;21.00;47.80;;;;;;5038777;28;21138;-59
2022/05/18 07:16:53;;;;;;;2.73;2.53;;;21.00;47.80;;;;;;5043145;28;20300;-59
2022/05/18 07:19:20;;;;;;;2.90;2.70;;;21.00;47.80;;;;;;5044174;28;20439;-59
2022/05/18 07:21:47;;;;;;;2.43;2.27;;;21.00;47.80;;;;;;5043129;28;20454;-60
2022/05/18 07:24:13;;;;;;;2.40;2.30;;;21.00;47.90;;;;;;5041292;28;20487;-59
2022/05/18 07:26:40;;;;;;;3.07;2.97;;;21.00;47.90;;;;;;5040490;28;20467;-59
2022/05/18 07:29:06;;;;;;;2.67;2.47;;;21.00;47.90;;;;;;5039084;28;20487;-59
2022/05/18 07:32:08;;;;;;;2.23;2.13;;;21.00;47.90;;;;;;5041477;28;20426;-59
2022/05/18 07:34:19;;;;;;;1.90;1.80;;;21.00;47.90;;;;;;5036719;28;20877;-59
2022/05/18 07:36:45;;;;;;;2.50;2.40;;;21.00;48.00;;;;;;5035318;28;20965;-59
2022/05/18 07:39:11;;;;;;;2.80;2.60;;;21.00;47.90;;;;;;5030190;28;20476;-58
2022/05/18 07:41:38;;;;;;;2.60;2.50;;;21.00;47.90;;;;;;5037639;28;20451;-59
2022/05/18 07:44:04;;;;;;;3.00;2.07;;;21.00;48.00;;;;;;5035737;28;20450;-60
2022/05/18 07:46:29;;;;;;;2.43;2.20;;;21.00;48.00;;;;;;5035451;28;20818;-59
2022/05/18 07:48:55;;;;;;;2.93;2.73;;;21.00;48.00;;;;;;5034884;28;20423;-59
2022/05/18 07:51:21;;;;;;;2.60;2.40;;;21.00;47.90;;;;;;5037575;28;20226;-59
2022/05/18 07:53:47;;;;;;;2.60;2.40;;;21.00;48.00;;;;;;5034293;28;20226;-58
2022/05/18 07:56:13;;;;;;;2.53;2.43;;;21.00;48.00;;;;;;5039302;28;20760;-58
2022/05/18 07:58:39;;;;;;;2.30;2.20;;;21.00;48.00;;;;;;5039577;28;20261;-59
2022/05/18 08:01:07;;;;;;;2.97;2.77;;;21.00;48.00;;;;;;5031446;28;20493;-60
2022/05/18 08:03:33;;;;;;;2.90;2.70;;;21.00;48.00;;;;;;5020270;28;20304;-59
2022/05/18 08:05:58;;;;;;;2.53;2.43;;;21.00;48.00;;;;;;5035990;28;21100;-58
2022/05/18 08:08:24;;;;;;;3.10;2.90;;;21.00;48.00;;;;;;5035399;28;20273;-59
2022/05/18 08:16:19;;;;;;;2.47;2.27;;;21.00;48.00;;;;;;5031728;28;20434;-59
2022/05/18 08:18:46;;;;;;;2.97;2.80;;;21.00;48.00;;;;;;5037520;28;20489;-59
2022/05/18 08:21:12;;;;;;;3.10;2.90;;;21.00;48.00;;;;;;5038319;28;20452;-58
2022/05/18 08:23:38;;;;;;;2.03;1.90;;;21.00;48.00;;;;;;5034874;28;20805;-60
2022/05/18 08:26:04;;;;;;;2.63;2.43;;;21.00;48.00;;;;;;5037058;28;20462;-59
2022/05/18 08:28:31;;;;;;;2.80;2.67;;;21.00;48.10;;;;;;5035713;28;20482;-59
2022/05/18 08:30:57;;;;;;;2.70;2.60;;;21.00;48.00;;;;;;5022548;28;20707;-59
2022/05/18 08:33:23;;;;;;;2.53;2.33;;;21.00;48.00;;;;;;5033712;28;20514;-59
2022/05/18 08:35:49;;;;;;;2.40;2.30;;;21.00;48.00;;;;;;5035300;28;20275;-59
2022/05/18 08:38:16;;;;;;;2.30;2.20;;;21.00;48.00;;;;;;5034281;28;20570;-60
2022/05/18 08:40:50;;;;;;;2.67;2.57;;;21.00;48.10;;;;;;5036091;28;20246;-59
2022/05/18 08:43:31;;;;;;;2.60;2.50;;;21.00;48.00;;;;;;5032797;28;20447;-59
2022/05/18 08:46:23;;;;;;;3.10;2.90;;;21.00;48.00;;;;;;5033774;28;20418;-59
2022/05/18 08:49:12;;;;;;;2.30;2.20;;;21.00;48.10;;;;;;5035300;28;20469;-59
2022/05/18 08:51:50;;;;;;;2.60;2.50;;;21.00;48.00;;;;;;5036253;28;20806;-58
2022/05/18 08:54:44;;;;;;;2.67;2.57;;;20.90;48.00;;;;;;5036924;28;20805;-59
2022/05/18 08:57:29;;;;;;;2.50;2.30;;;21.00;48.10;;;;;;5034465;28;20551;-58
2022/05/18 08:59:58;;;;;;;2.37;2.27;;;21.00;48.10;;;;;;5031804;28;21202;-59
2022/05/18 09:02:32;;;;;;;8.50;2.90;;;20.90;47.30;;;;;;5038689;28;20501;-59
2022/05/18 09:05:10;;;;;;;2.63;2.50;;;20.90;48.10;;;;;;5032981;28;20449;-59
2022/05/18 09:08:18;;;;;;;2.60;2.40;;;21.00;48.10;;;;;;5039394;28;20484;-59
2022/05/18 09:10:53;;;;;;;2.30;2.20;;;21.00;48.10;;;;;;4985334;28;20818;-59
2022/05/18 09:13:20;;;;;;;2.30;2.20;;;20.90;48.00;;;;;;5018454;28;20434;-58
2022/05/18 09:16:21;;;;;;;2.50;2.30;;;21.00;48.10;;;;;;5034190;28;20456;-58
2022/05/18 09:19:05;;;;;;;2.27;2.17;;;21.00;48.10;;;;;;5027256;28;20448;-58
2022/05/18 09:21:34;;;;;;;2.60;2.50;;;20.90;48.00;;;;;;5029866;28;20455;-58
2022/05/18 09:24:23;;;;;;;2.77;2.63;;;21.00;48.50;;;;;;5037735;28;20441;-59
2022/05/18 09:26:59;;;;;;;2.20;2.10;;;20.90;48.00;;;;;;5032240;28;21029;-58
2022/05/18 09:29:38;;;;;;;2.67;2.57;;;20.90;48.10;;;;;;5031358;28;20476;-58
2022/05/18 09:32:43;;;;;;;2.57;2.37;;;21.00;48.10;;;;;;5036077;28;20460;-58
2022/05/18 09:35:36;;;;;;;2.00;1.90;;;21.00;48.10;;;;;;5029434;28;20472;-58
2022/05/18 09:38:10;;;;;;;2.90;2.80;;;20.90;48.00;;;;;;5036510;28;20469;-59
2022/05/18 09:40:45;;;;;;;2.73;2.53;;;20.90;48.10;;;;;;5038368;28;20474;-59
2022/05/18 09:43:24;;;;;;;2.67;2.57;;;20.90;48.00;;;;;;5031846;28;20542;-59
2022/05/18 09:45:50;;;;;;;2.47;2.37;;;20.90;48.10;;;;;;5032421;28;20447;-59
2022/05/18 09:48:33;;;;;;;2.87;2.67;;;20.90;48.10;;;;;;5020936;28;20812;-58
2022/05/18 09:50:59;;;;;;;2.67;2.57;;;20.90;48.10;;;;;;5032595;28;20448;-59
2022/05/18 09:53:25;;;;;;;2.77;2.60;;;20.90;48.10;;;;;;5038651;28;21245;-59
2022/05/18 09:55:51;;;;;;;2.73;2.63;;;20.90;48.00;;;;;;5032416;28;20511;-59
2022/05/18 09:58:36;;;;;;;2.73;2.53;;;20.90;48.00;;;;;;5031051;28;20517;-57
2022/05/18 10:09:47;;;;;;;2.83;2.63;;;20.90;48.10;;;;;;5032801;28;20470;-59
2022/05/18 10:12:19;;;;;;;2.50;2.40;;;20.90;48.10;;;;;;5034253;28;20452;-59
2022/05/18 10:14:48;;;;;;;2.40;2.30;;;20.90;48.20;;;;;;5037702;28;20807;-59
2022/05/18 10:17:15;;;;;;;3.07;2.87;;;20.90;48.10;;;;;;5034276;28;20457;-59
2022/05/18 10:19:48;;;;;;;2.77;2.67;;;20.90;48.10;;;;;;5031353;28;20439;-59
2022/05/18 10:22:23;;;;;;;2.77;2.57;;;20.90;48.10;;;;;;5035920;28;20573;-59
2022/05/18 10:25:08;;;;;;;2.63;2.53;;;20.90;48.10;;;;;;5030762;28;20464;-58
2022/05/18 10:27:41;;;;;;;2.90;2.77;;;20.90;48.10;;;;;;5031300;28;20447;-59
2022/05/18 10:30:18;;;;;;;2.70;2.60;;;20.90;48.10;;;;;;5035897;28;20487;-59
2022/05/18 10:33:01;;;;;;;3.07;2.87;;;20.90;48.10;;;;;;5031363;28;21019;-58
2022/05/18 10:35:41;;;;;;;4.73;3.43;;;21.00;48.10;;;;;;5031727;28;20908;-58
2022/05/18 10:38:39;;;;;;;2.67;2.57;;;20.90;48.10;;;;;;5036211;28;20451;-58
2022/05/18 10:41:15;;;;;;;2.67;2.57;;;20.90;48.10;;;;;;5016385;28;20463;-59
2022/05/18 10:44:06;;;;;;;3.40;3.20;;;20.90;48.10;;;;;;5036246;28;20552;-58
2022/05/18 10:46:37;;;;;;;2.90;2.80;;;20.90;48.10;;;;;;5033327;28;20929;-58
2022/05/18 10:49:07;;;;;;;3.63;3.43;;;20.90;48.10;;;;;;5030602;28;20459;-59
2022/05/18 10:51:39;;;;;;;3.73;3.53;;;20.90;48.10;;;;;;5038145;28;20444;-59
2022/05/18 10:54:14;;;;;;;4.23;2.77;;;20.90;48.10;;;;;;5034392;28;20452;-59
2022/05/18 10:56:40;;;;;;;2.93;2.83;;;21.00;48.10;;;;;;5034969;28;20520;-59
2022/05/18 10:59:32;;;;;;;3.13;2.93;;;20.90;48.10;;;;;;5035150;28;21602;-59
2022/05/18 11:02:15;;;;;;;3.70;3.40;;;21.00;48.10;;;;;;5033056;28;20226;-58
2022/05/18 11:04:55;;;;;;;3.47;3.27;;;20.90;48.10;;;;;;5016492;28;20447;-59
2022/05/18 11:07:24;;;;;;;3.50;3.30;;;21.00;48.20;;;;;;5035446;28;20529;-59
2022/05/18 11:09:50;;;;;;;3.50;3.30;;;20.90;48.10;;;;;;5034829;28;20463;-58
2022/05/18 11:12:22;;;;;;;3.10;2.97;;;20.90;48.10;;;;;;5040562;28;20780;-58
2022/05/18 11:15:16;;;;;;;3.53;3.33;;;20.90;48.10;;;;;;5032253;28;20227;-58
2022/05/18 11:18:12;;;;;;;3.90;3.60;;;20.90;48.10;;;;;;5034077;28;20426;-59
2022/05/18 11:21:05;;;;;;;4.00;3.80;;;20.90;48.10;;;;;;5038655;28;20422;-58
2022/05/18 11:23:49;;;;;;;3.43;3.23;;;20.90;48.10;;;;;;5038473;28;20449;-58
2022/05/18 11:26:57;;;;;;;4.10;3.90;;;20.90;48.10;;;;;;5038896;28;20426;-58
2022/05/18 11:29:33;;;;;;;3.70;3.50;;;20.90;49.00;;;;;;4932531;29;20435;-58
2022/05/18 11:32:28;;;;;;;3.80;3.50;;;20.90;48.20;;;;;;5019363;28;20517;-58
2022/05/18 11:35:14;;;;;;;3.80;3.60;;;20.90;48.20;;;;;;5039355;28;20800;-58
2022/05/18 11:38:28;;;;;;;3.20;3.00;;;20.90;48.20;;;;;;5033755;28;20510;-58
2022/05/18 11:41:06;;;;;;;3.70;3.50;;;20.90;48.20;;;;;;5036519;28;20460;-58
2022/05/18 11:44:07;;;;;;;3.30;3.10;;;20.90;48.20;;;;;;5038276;28;20980;-58
2022/05/18 11:46:38;;;;;;;3.60;3.40;;;20.90;48.20;;;;;;5034259;28;20426;-60
2022/05/18 11:49:13;;;;;;;3.93;3.73;;;20.90;48.20;;;;;;5039036;28;20462;-58
2022/05/18 11:52:07;;;;;;;5.20;3.70;;;20.90;48.20;;;;;;5033890;28;20527;-58
2022/05/18 11:55:14;;;;;;;4.13;3.80;;;20.90;48.20;;;;;;5033724;28;20426;-59
2022/05/18 11:58:11;;;;;;;4.30;4.00;;;20.90;48.30;;;;;;5004100;28;20453;-57
2022/05/18 12:01:06;;;;;;;3.87;3.67;;;20.90;48.30;;;;;;5034559;28;20452;-58
2022/05/18 12:04:19;;;;;;;3.90;3.70;;;20.90;48.30;;;;;;5036021;28;20444;-57
2022/05/18 12:07:01;;;;;;;4.20;4.00;;;20.90;48.40;;;;;;5043510;28;20958;-58
2022/05/18 12:09:35;;;;;;;4.10;3.90;;;20.90;48.20;;;;;;5033951;28;20961;-57
2022/05/18 12:12:15;;;;;;;3.57;3.37;;;20.90;49.00;;;;;;5037467;28;21020;-58
2022/05/18 12:14:46;;;;;;;4.40;4.20;;;20.90;48.30;;;;;;5036208;28;20856;-58
2022/05/18 12:17:45;;;;;;;3.53;3.33;;;20.90;48.20;;;;;;5036528;28;20448;-58
2022/05/18 12:20:36;;;;;;;4.10;3.90;;;21.00;48.30;;;;;;5037119;28;20444;-57
2022/05/18 12:23:06;;;;;;;3.77;3.57;;;20.90;48.20;;;;;;5038090;28;20774;-57
2022/05/18 12:25:34;;;;;;;4.10;3.90;;;21.00;48.30;;;;;;5036133;28;20590;-59
2022/05/18 12:28:05;;;;;;;3.60;3.40;;;20.90;48.30;;;;;;5039050;28;20534;-57
2022/05/18 12:30:34;;;;;;;4.00;3.80;;;20.90;48.30;;;;;;5030345;28;20943;-57
2022/05/18 12:33:02;;;;;;;4.00;3.70;;;20.90;48.30;;;;;;5037891;28;20474;-57
2022/05/18 12:35:49;;;;;;;3.90;3.70;;;20.90;48.30;;;;;;5038290;28;20853;-57
2022/05/18 12:38:22;;;;;;;3.63;3.43;;;21.00;48.50;;;;;;5035324;28;20472;-57
2022/05/18 12:41:08;;;;;;;3.93;3.73;;;20.90;48.30;;;;;;5037238;28;20932;-58
2022/05/18 12:43:45;;;;;;;3.70;3.50;;;21.00;48.30;;;;;;5032928;28;20452;-57
2022/05/18 12:46:14;;;;;;;3.00;2.80;;;20.90;48.30;;;;;;5035739;28;20498;-58
2022/05/18 12:48:50;;;;;;;3.50;3.30;;;20.90;48.30;;;;;;5039210;28;20506;-58
2022/05/18 12:51:27;;;;;;;3.90;3.70;;;21.00;48.30;;;;;;5039150;28;20500;-58
2022/05/18 12:53:52;;;;;;;4.20;3.87;;;20.90;48.20;;;;;;5032411;28;20455;-57
2022/05/18 12:56:43;;;;;;;4.07;3.87;;;21.00;48.30;;;;;;5036973;28;20444;-58
2022/05/18 12:59:10;;;;;;;3.80;3.60;;;21.00;48.30;;;;;;5033447;28;20222;-57
2022/05/18 13:01:39;;;;;;;4.27;4.00;;;20.90;48.30;;;;;;5035167;28;20460;-57
2022/05/18 13:04:10;;;;;;;3.97;3.73;;;21.00;48.40;;;;;;5038783;28;20476;-57
2022/05/18 13:06:36;;;;;;;4.30;4.10;;;20.90;48.30;;;;;;5033354;28;20455;-58
2022/05/18 13:09:23;;;;;;;4.60;4.30;;;20.90;48.30;;;;;;5035568;28;20436;-57
2022/05/18 13:12:03;;;;;;;4.13;3.93;;;21.00;48.40;;;;;;5034977;28;20289;-57
2022/05/18 13:14:34;;;;;;;4.80;4.50;;;20.90;48.30;;;;;;5035549;28;20435;-57
2022/05/18 13:16:59;;;;;;;5.10;4.10;;;20.90;48.40;;;;;;5036999;28;20506;-57
2022/05/18 13:19:31;;;;;;;4.50;4.20;;;20.90;48.40;;;;;;5033972;28;20541;-58
2022/05/18 13:21:56;;;;;;;6.83;4.17;;;20.90;48.40;;;;;;5035164;28;20224;-57
2022/05/18 13:24:37;;;;;;;4.27;3.83;;;20.90;48.40;;;;;;5037287;28;20453;-57
2022/05/18 13:27:18;;;;;;;3.80;3.50;;;21.00;48.60;;;;;;5036574;28;20222;-58
2022/05/18 13:29:46;;;;;;;4.57;4.27;;;21.00;48.60;;;;;;5034102;28;20471;-59